createdAt,value
2019-05-10T00:03:25.134Z,7.78
2019-05-10T00:09:22.636Z,8.00
2019-05-10T00:12:05.193Z,7.95
2019-05-10T00:14:53.690Z,8.48
2019-05-10T00:17:29.768Z,9.33
2019-05-10T00:19:59.436Z,8.98
2019-05-10T00:22:29.802Z,8.68
2019-05-10T00:25:08.538Z,8.83
2019-05-10T00:27:41.866Z,8.50
2019-05-10T00:30:13.657Z,8.85
2019-05-10T00:32:48.724Z,8.13
2019-05-10T00:58:10.887Z,9.58
2019-05-10T01:00:46.447Z,9.88
2019-05-10T01:03:21.105Z,8.33
2019-05-10T01:05:52.774Z,8.43
2019-05-10T01:11:06.762Z,8.28
2019-05-10T01:13:38.523Z,8.08
2019-05-10T01:16:14.253Z,10.05
2019-05-10T01:18:42.994Z,9.45
2019-05-10T01:21:42.448Z,10.03
2019-05-10T01:24:13.862Z,9.35
2019-05-10T01:26:58.560Z,9.88
2019-05-10T01:29:33.773Z,9.38
2019-05-10T01:32:09.008Z,8.88
2019-05-10T01:35:09.016Z,9.33
2019-05-10T01:37:38.897Z,8.60
2019-05-10T01:40:43.835Z,9.48
2019-05-10T01:43:22.938Z,8.98
2019-05-10T01:45:57.258Z,8.73
2019-05-10T01:48:34.604Z,9.33
2019-05-10T01:51:09.263Z,9.70
2019-05-10T01:53:39.899Z,8.90
2019-05-10T01:56:14.280Z,9.83
2019-05-10T01:58:44.013Z,10.32
2019-05-10T02:01:15.790Z,10.10
2019-05-10T02:03:45.294Z,9.85
2019-05-10T02:06:20.097Z,10.15
2019-05-10T02:08:51.977Z,10.38
2019-05-10T02:11:25.046Z,11.70
2019-05-10T02:14:03.723Z,12.13
2019-05-10T02:16:32.716Z,12.98
2019-05-10T02:19:05.256Z,14.50
2019-05-10T02:21:40.198Z,14.50
2019-05-10T02:24:12.261Z,15.15
2019-05-10T02:26:47.898Z,15.75
2019-05-10T02:29:19.235Z,16.80
2019-05-10T02:31:54.893Z,16.25
2019-05-10T02:34:27.329Z,16.30
2019-05-10T02:37:08.015Z,15.68
2019-05-10T02:39:38.996Z,15.30
2019-05-10T02:42:08.244Z,16.77
2019-05-10T02:44:45.071Z,17.70
2019-05-10T02:47:17.732Z,17.37
2019-05-10T02:49:48.647Z,16.37
2019-05-10T02:52:20.389Z,19.90
2019-05-10T02:54:52.076Z,20.40
2019-05-10T03:00:10.414Z,21.57
2019-05-10T03:02:49.433Z,23.80
2019-05-10T03:05:20.110Z,22.52
2019-05-10T03:07:52.944Z,24.73
2019-05-10T03:10:22.865Z,24.50
2019-05-10T03:12:57.719Z,24.67
2019-05-10T03:15:38.658Z,26.55
2019-05-10T03:18:10.424Z,25.48
2019-05-10T03:20:48.593Z,28.20
2019-05-10T03:23:20.466Z,26.07
2019-05-10T03:25:49.237Z,27.15
2019-05-10T03:28:26.936Z,28.02
2019-05-10T03:30:58.439Z,27.15
2019-05-10T03:33:27.103Z,26.95
2019-05-10T03:35:56.905Z,24.70
2019-05-10T03:38:28.848Z,25.57
2019-05-10T03:40:59.775Z,23.65
2019-05-10T03:43:29.409Z,22.95
2019-05-10T03:46:22.166Z,20.30
2019-05-10T03:48:51.462Z,18.35
2019-05-10T03:51:23.197Z,18.87
2019-05-10T03:56:23.845Z,19.07
2019-05-10T03:59:05.222Z,22.70
2019-05-10T04:01:49.438Z,23.30
2019-05-10T04:04:23.885Z,22.80
2019-05-10T04:06:55.042Z,24.23
2019-05-10T04:09:32.296Z,24.07
2019-05-10T04:12:07.054Z,23.87
2019-05-10T04:14:42.198Z,25.05
2019-05-10T04:17:27.959Z,25.90
2019-05-10T04:19:58.741Z,25.37
2019-05-10T04:22:28.757Z,26.85
2019-05-10T04:24:57.353Z,27.17
2019-05-10T04:27:33.578Z,27.73
2019-05-10T04:30:09.821Z,26.40
2019-05-10T04:32:39.008Z,29.00
2019-05-10T04:35:13.971Z,30.43
2019-05-10T04:37:46.224Z,29.48
2019-05-10T04:40:20.965Z,29.27
2019-05-10T04:42:59.661Z,27.98
2019-05-10T04:45:28.669Z,25.57
2019-05-10T04:48:05.420Z,24.27
2019-05-10T04:50:35.063Z,23.57
2019-05-10T04:53:10.001Z,23.22
2019-05-10T04:55:40.704Z,23.52
2019-05-10T04:58:15.201Z,23.83
2019-05-10T05:00:44.253Z,23.65
2019-05-10T05:03:17.746Z,24.07
2019-05-10T05:05:49.480Z,23.85
2019-05-10T05:08:21.036Z,24.00
2019-05-10T05:10:52.541Z,25.50
2019-05-10T05:13:41.388Z,23.10
2019-05-10T05:16:16.106Z,22.73
2019-05-10T05:18:50.370Z,20.02
2019-05-10T05:21:26.439Z,20.45
2019-05-10T05:24:04.977Z,19.87
2019-05-10T05:26:36.836Z,18.55
2019-05-10T05:29:05.418Z,18.60
2019-05-10T05:31:38.689Z,19.67
2019-05-10T05:34:13.160Z,20.35
2019-05-10T05:36:46.752Z,19.77
2019-05-10T05:39:24.953Z,18.32
2019-05-10T05:41:56.775Z,18.37
2019-05-10T05:48:40.122Z,18.45
2019-05-10T05:51:03.178Z,18.27
2019-05-10T05:53:59.347Z,19.90
2019-05-10T05:56:33.409Z,20.00
2019-05-10T05:59:08.930Z,20.10
2019-05-10T06:01:42.863Z,19.23
2019-05-10T06:04:12.801Z,19.60
2019-05-10T06:06:44.727Z,19.65
2019-05-10T06:09:22.470Z,18.77
2019-05-10T06:11:54.084Z,16.67
2019-05-10T06:16:54.251Z,17.85
2019-05-10T06:19:29.779Z,18.00
2019-05-10T06:22:38.167Z,19.27
2019-05-10T06:25:28.823Z,18.62
2019-05-10T06:28:25.371Z,18.52
2019-05-10T06:30:45.089Z,17.60
2019-05-10T06:33:15.964Z,16.87
2019-05-10T06:35:51.043Z,15.85
2019-05-10T06:38:42.750Z,17.10
2019-05-10T06:41:50.126Z,16.97
2019-05-10T06:44:44.064Z,17.98
2019-05-10T06:47:21.704Z,17.62
2019-05-10T06:49:52.018Z,19.52
2019-05-10T06:52:27.829Z,18.55
2019-05-10T06:58:00.665Z,16.80
2019-05-10T07:00:44.681Z,17.25
2019-05-10T07:03:11.927Z,17.23
2019-05-10T07:05:43.542Z,17.30
2019-05-10T07:11:08.506Z,16.90
2019-05-10T07:14:00.309Z,17.27
2019-05-10T07:19:40.855Z,7.78
2019-05-10T07:22:11.078Z,10.95
2019-05-10T07:24:43.935Z,8.33
2019-05-10T07:27:18.483Z,7.62
2019-05-10T07:29:47.316Z,8.83
2019-05-10T07:32:16.479Z,7.83
2019-05-10T07:34:48.783Z,8.38
2019-05-10T07:37:23.609Z,7.47
2019-05-10T07:40:05.587Z,8.63
2019-05-10T07:42:34.156Z,8.85
2019-05-10T07:45:07.198Z,7.45
2019-05-10T07:47:41.517Z,7.20
2019-05-10T07:50:11.665Z,5.87
2019-05-10T07:52:46.261Z,5.37
2019-05-10T07:55:28.064Z,4.92
2019-05-10T07:57:59.148Z,6.00
2019-05-10T08:00:26.478Z,7.30
2019-05-10T08:03:07.567Z,6.20
2019-05-10T08:05:33.370Z,6.40
2019-05-10T08:08:11.031Z,4.83
2019-05-10T08:10:42.288Z,4.65
2019-05-10T08:13:21.221Z,5.22
2019-05-10T08:15:55.373Z,4.55
2019-05-10T08:18:25.527Z,4.78
2019-05-10T08:21:01.521Z,2.60
2019-05-10T08:23:30.683Z,3.45
2019-05-10T08:26:04.524Z,2.83
2019-05-10T08:28:52.811Z,4.58
2019-05-10T08:31:56.082Z,4.62
2019-05-10T08:34:35.680Z,4.30
2019-05-10T08:37:19.485Z,3.85
2019-05-10T08:39:49.496Z,3.42
2019-05-10T08:42:34.318Z,2.70
2019-05-10T08:44:54.113Z,2.35
2019-05-10T08:47:27.317Z,2.98
2019-05-10T08:50:10.407Z,2.40
2019-05-10T08:52:31.636Z,2.45
2019-05-10T08:55:12.227Z,2.27
2019-05-10T08:57:49.092Z,2.35
2019-05-10T09:00:40.232Z,2.63
2019-05-10T09:02:52.438Z,3.25
2019-05-10T09:05:31.882Z,3.90
2019-05-10T09:08:11.602Z,3.52
2019-05-10T09:10:42.146Z,3.98
2019-05-10T09:13:16.106Z,4.85
2019-05-10T09:15:56.084Z,4.30
2019-05-10T09:18:23.747Z,4.30
2019-05-10T09:21:08.469Z,4.75
2019-05-10T09:23:36.382Z,5.00
2019-05-10T09:26:12.011Z,4.78
2019-05-10T09:28:47.497Z,3.33
2019-05-10T09:31:21.994Z,3.45
2019-05-10T09:34:23.763Z,2.87
2019-05-10T09:36:52.827Z,2.47
2019-05-10T09:39:32.100Z,2.40
2019-05-10T09:42:08.267Z,2.37
2019-05-10T09:44:34.176Z,2.50
2019-05-10T09:47:39.328Z,2.47
2019-05-10T09:50:41.440Z,2.20
2019-05-10T09:53:12.670Z,2.95
2019-05-10T09:55:48.968Z,2.80
2019-05-10T09:58:14.351Z,2.90
2019-05-10T10:00:51.605Z,3.20
2019-05-10T10:03:43.101Z,2.67
2019-05-10T10:06:13.364Z,2.60
2019-05-10T10:09:24.499Z,2.90
2019-05-10T10:12:32.961Z,2.65
2019-05-10T10:15:18.664Z,2.60
2019-05-10T10:17:49.471Z,2.50
2019-05-10T10:20:20.943Z,1.65
2019-05-10T10:25:29.749Z,2.85
2019-05-10T10:28:08.334Z,3.12
2019-05-10T10:30:37.701Z,5.60
2019-05-10T10:33:17.835Z,8.13
2019-05-10T10:35:49.637Z,6.92
2019-05-10T10:38:18.488Z,7.58
2019-05-10T10:40:50.148Z,8.50
2019-05-10T10:43:27.220Z,7.85
2019-05-10T10:45:57.386Z,8.45
2019-05-10T10:48:28.309Z,9.73
2019-05-10T10:51:15.374Z,10.48
2019-05-10T10:53:54.443Z,11.48
2019-05-10T10:56:27.643Z,11.25
2019-05-10T10:59:00.782Z,10.53
2019-05-10T11:01:49.863Z,10.58
2019-05-10T11:04:16.267Z,10.98
2019-05-10T11:06:46.824Z,11.45
2019-05-10T11:09:22.434Z,11.08
2019-05-10T11:11:54.217Z,10.55
2019-05-10T11:14:31.937Z,10.78
2019-05-10T11:17:01.179Z,12.05
2019-05-10T11:19:35.694Z,12.30
2019-05-10T11:22:13.649Z,12.47
2019-05-10T11:24:53.409Z,13.80
2019-05-10T11:27:20.989Z,12.25
2019-05-10T11:30:00.862Z,12.98
2019-05-10T11:32:32.097Z,11.40
2019-05-10T11:35:05.399Z,10.28
2019-05-10T11:37:36.629Z,9.13
2019-05-10T11:40:27.771Z,8.70
2019-05-10T11:42:55.146Z,8.45
2019-05-10T11:45:26.140Z,8.38
2019-05-10T11:48:04.415Z,6.40
2019-05-10T11:50:35.973Z,6.10
2019-05-10T11:53:13.383Z,6.20
2019-05-10T11:55:44.541Z,6.72
2019-05-10T11:58:23.501Z,6.95
2019-05-10T12:00:59.460Z,7.30
2019-05-10T12:03:26.870Z,7.30
2019-05-10T12:06:12.110Z,7.95
2019-05-10T12:08:41.838Z,10.40
2019-05-10T12:11:25.446Z,11.33
2019-05-10T12:13:52.854Z,10.85
2019-05-10T12:16:22.002Z,9.43
2019-05-10T12:19:06.510Z,10.85
2019-05-10T12:22:04.556Z,9.00
2019-05-10T12:24:57.273Z,11.12
2019-05-10T12:27:22.578Z,10.00
2019-05-10T12:29:55.886Z,9.03
2019-05-10T12:32:55.685Z,10.32
2019-05-10T12:36:00.825Z,11.48
2019-05-10T12:38:38.435Z,10.45
2019-05-10T12:41:23.224Z,9.95
2019-05-10T12:44:26.407Z,9.88
2019-05-10T12:46:56.998Z,10.82
2019-05-10T12:49:28.579Z,12.05
2019-05-10T12:52:03.978Z,13.88
2019-05-10T12:54:38.547Z,14.55
2019-05-10T12:57:13.380Z,14.68
2019-05-10T12:59:44.998Z,13.83
2019-05-10T13:02:19.803Z,15.05
2019-05-10T13:04:54.445Z,15.20
2019-05-10T13:07:28.854Z,14.35
2019-05-10T13:10:03.783Z,14.15
2019-05-10T13:12:49.649Z,15.20
2019-05-10T13:15:24.690Z,15.15
2019-05-10T13:17:53.052Z,15.25
2019-05-10T13:20:24.890Z,14.28
2019-05-10T13:22:56.831Z,15.88
2019-05-10T13:26:01.502Z,15.23
2019-05-10T13:28:34.726Z,14.40
2019-05-10T13:31:17.157Z,14.58
2019-05-10T13:33:47.831Z,12.85
2019-05-10T13:36:19.568Z,13.60
2019-05-10T13:38:57.593Z,13.18
2019-05-10T13:41:26.639Z,12.90
2019-05-10T13:43:59.000Z,14.03
2019-05-10T13:46:31.853Z,14.90
2019-05-10T13:49:16.503Z,13.78
2019-05-10T13:51:48.990Z,12.53
2019-05-10T13:54:25.500Z,12.55
2019-05-10T13:57:02.565Z,12.80
2019-05-10T13:59:38.954Z,12.65
2019-05-10T14:02:40.777Z,12.13
2019-05-10T14:05:17.722Z,11.53
2019-05-10T14:07:51.942Z,12.10
2019-05-10T14:10:49.230Z,12.28
2019-05-10T14:13:18.605Z,11.73
2019-05-10T14:16:19.502Z,11.65
2019-05-10T14:19:22.973Z,11.65
2019-05-10T14:21:56.269Z,11.45
2019-05-10T14:24:28.578Z,11.48
2019-05-10T14:26:59.832Z,11.33
2019-05-10T14:29:34.349Z,11.05
2019-05-10T14:32:04.614Z,12.35
2019-05-10T14:34:38.059Z,11.50
2019-05-10T14:37:19.291Z,11.22
2019-05-10T14:39:56.463Z,12.00
2019-05-10T14:42:33.571Z,11.22
2019-05-10T14:45:06.903Z,11.25
2019-05-10T14:47:47.784Z,11.78
2019-05-10T14:50:19.190Z,11.50
2019-05-10T14:52:46.933Z,11.95
2019-05-10T14:55:27.899Z,11.65
2019-05-10T14:57:59.496Z,11.90
2019-05-10T15:03:09.454Z,12.17
2019-05-10T15:05:48.928Z,12.53
2019-05-10T15:08:17.417Z,12.30
2019-05-10T15:13:28.577Z,11.53
2019-05-10T15:15:59.579Z,11.00
2019-05-10T15:18:30.309Z,10.82
2019-05-10T15:20:58.895Z,10.25
2019-05-10T15:23:33.527Z,9.05
2019-05-10T15:26:10.361Z,9.63
2019-05-10T15:28:40.311Z,9.98
2019-05-10T15:31:30.907Z,9.80
2019-05-10T15:34:06.568Z,10.65
2019-05-10T15:36:40.937Z,9.88
2019-05-10T15:39:16.611Z,10.20
2019-05-10T15:41:53.566Z,9.48
2019-05-10T15:44:31.531Z,10.05
2019-05-10T15:47:19.769Z,10.18
2019-05-10T15:49:54.604Z,10.48
2019-05-10T15:52:25.856Z,10.45
2019-05-10T15:54:57.095Z,9.47
2019-05-10T15:57:32.279Z,10.53
2019-05-10T16:00:25.311Z,10.65
2019-05-10T16:02:55.888Z,9.40
2019-05-10T16:06:00.892Z,10.15
2019-05-10T16:08:31.929Z,10.75
2019-05-10T16:11:03.703Z,10.53
2019-05-10T16:13:39.334Z,10.65
2019-05-10T16:16:16.457Z,10.03
2019-05-10T16:18:45.171Z,8.30
2019-05-10T16:21:16.835Z,11.28
2019-05-10T16:26:36.736Z,10.78
2019-05-10T16:29:05.306Z,10.55
2019-05-10T16:31:44.680Z,11.25
2019-05-10T16:34:13.266Z,12.00
2019-05-10T16:36:48.123Z,12.10
2019-05-10T16:39:23.649Z,12.95
2019-05-10T16:41:54.947Z,12.23
2019-05-10T16:44:35.529Z,12.90
2019-05-10T16:47:04.275Z,12.68
2019-05-10T16:49:53.352Z,13.00
2019-05-10T16:52:25.832Z,12.50
2019-05-10T16:54:51.794Z,14.20
2019-05-10T16:57:20.500Z,12.82
2019-05-10T16:59:55.001Z,14.07
2019-05-10T17:02:24.629Z,12.07
2019-05-10T17:04:55.973Z,12.28
2019-05-10T17:07:24.663Z,11.53
2019-05-10T17:09:56.373Z,10.90
2019-05-10T17:12:37.263Z,11.63
2019-05-10T17:15:06.792Z,11.68
2019-05-10T17:17:50.394Z,12.25
2019-05-10T17:20:34.759Z,11.60
2019-05-10T17:23:08.933Z,10.55
2019-05-10T17:25:42.877Z,10.55
2019-05-10T17:28:14.187Z,10.95
2019-05-10T17:30:45.500Z,11.12
2019-05-10T17:33:16.930Z,11.03
2019-05-10T17:36:19.784Z,10.80
2019-05-10T17:38:55.456Z,10.95
2019-05-10T17:41:31.689Z,11.35
2019-05-10T17:44:06.756Z,11.33
2019-05-10T17:46:41.059Z,11.88
2019-05-10T17:49:18.461Z,11.73
2019-05-10T17:51:46.541Z,12.55
2019-05-10T17:54:21.469Z,12.33
2019-05-10T17:56:56.066Z,13.50
2019-05-10T17:59:26.595Z,13.20
2019-05-10T18:01:58.244Z,11.80
2019-05-10T18:07:08.597Z,10.53
2019-05-10T18:09:37.206Z,12.20
2019-05-10T18:12:15.691Z,13.32
2019-05-10T18:14:50.155Z,12.35
2019-05-10T18:17:35.262Z,12.65
2019-05-10T18:20:04.921Z,12.85
2019-05-10T18:22:52.898Z,12.10
2019-05-10T18:25:35.463Z,12.28
2019-05-10T18:28:17.152Z,12.60
2019-05-10T18:30:57.395Z,14.07
2019-05-10T18:33:25.975Z,13.30
2019-05-10T18:36:49.238Z,13.78
2019-05-10T18:39:08.929Z,14.35
2019-05-10T18:41:41.397Z,13.85
2019-05-10T18:44:14.236Z,15.32
2019-05-10T18:46:39.747Z,15.08
2019-05-10T18:49:11.411Z,15.18
2019-05-10T18:51:43.831Z,16.57
2019-05-10T18:54:12.844Z,15.95
2019-05-10T18:56:57.623Z,16.07
2019-05-10T18:59:34.056Z,15.45
2019-05-10T19:02:11.902Z,16.30
2019-05-10T19:04:37.679Z,16.27
2019-05-10T19:07:10.432Z,18.62
2019-05-10T19:09:42.253Z,17.37
2019-05-10T19:12:18.956Z,17.05
2019-05-10T19:14:48.407Z,16.82
2019-05-10T19:17:19.684Z,15.72
2019-05-10T19:19:50.967Z,16.42
2019-05-10T19:22:22.567Z,17.20
2019-05-10T19:27:44.745Z,17.80
2019-05-10T19:30:40.424Z,18.35
2019-05-10T19:33:11.543Z,18.25
2019-05-10T19:35:45.996Z,18.62
2019-05-10T19:38:23.110Z,18.48
2019-05-10T19:40:57.775Z,18.48
2019-05-10T19:43:29.394Z,18.07
2019-05-10T19:48:35.643Z,17.45
2019-05-10T19:51:22.858Z,17.95
2019-05-10T19:53:51.736Z,18.87
2019-05-10T19:56:20.336Z,18.95
2019-05-10T19:58:54.680Z,19.07
2019-05-10T20:01:26.409Z,20.15
2019-05-10T20:03:57.827Z,19.17
2019-05-10T20:06:28.635Z,21.07
2019-05-10T20:08:58.410Z,20.85
2019-05-10T20:11:27.160Z,20.95
2019-05-10T20:13:58.537Z,21.02
2019-05-10T20:16:34.388Z,21.30
2019-05-10T20:19:24.490Z,19.80
2019-05-10T20:21:53.056Z,21.25
2019-05-10T20:24:33.714Z,21.70
2019-05-10T20:27:05.073Z,21.50
2019-05-10T20:29:36.685Z,21.42
2019-05-10T20:34:48.472Z,23.18
2019-05-10T20:37:23.343Z,23.83
2019-05-10T20:39:57.911Z,25.12
2019-05-10T20:42:31.596Z,24.70
2019-05-10T20:45:07.322Z,23.75
2019-05-10T20:47:33.235Z,25.55
2019-05-10T20:50:14.754Z,26.40
2019-05-10T20:52:43.356Z,26.40
2019-05-10T20:55:13.380Z,27.52
2019-05-10T20:57:45.012Z,27.35
2019-05-10T21:03:02.521Z,25.27
2019-05-10T21:05:37.149Z,25.67
2019-05-10T21:08:16.932Z,26.00
2019-05-10T21:10:40.331Z,26.17
2019-05-10T21:13:17.964Z,24.82
2019-05-10T21:15:49.368Z,28.10
2019-05-10T21:18:38.949Z,25.77
2019-05-10T21:21:09.528Z,23.47
2019-05-10T21:23:44.098Z,23.75
2019-05-10T21:26:15.761Z,22.82
2019-05-10T21:32:16.275Z,22.62
2019-05-10T21:34:48.033Z,22.10
2019-05-10T21:37:16.627Z,20.65
2019-05-10T21:39:49.448Z,20.48
2019-05-10T21:42:21.099Z,20.55
2019-05-10T21:47:20.589Z,21.02
2019-05-10T21:52:20.136Z,20.85
2019-05-10T21:55:08.284Z,22.22
2019-05-10T21:57:48.925Z,21.27
2019-05-10T22:00:22.749Z,22.02
2019-05-10T22:02:51.311Z,21.35
2019-05-10T22:05:26.033Z,20.30
2019-05-10T22:08:02.637Z,21.27
2019-05-10T22:10:34.913Z,20.85
2019-05-10T22:13:12.705Z,20.48
2019-05-10T22:15:41.333Z,21.60
2019-05-10T22:18:15.848Z,20.52
2019-05-10T22:20:47.120Z,21.65
2019-05-10T22:23:15.716Z,20.45
2019-05-10T22:25:44.315Z,20.10
2019-05-10T22:28:23.863Z,19.32
2019-05-10T22:30:58.475Z,19.55
2019-05-10T22:33:30.065Z,19.92
2019-05-10T22:36:01.442Z,19.42
2019-05-10T22:38:33.153Z,19.57
2019-05-10T22:43:47.291Z,19.12
2019-05-10T22:46:15.895Z,19.87
2019-05-10T22:48:47.539Z,19.32
2019-05-10T22:53:59.602Z,18.60
2019-05-10T22:56:23.260Z,18.42
2019-05-10T22:58:51.881Z,18.20
2019-05-10T23:01:20.583Z,19.45
2019-05-10T23:03:55.071Z,18.52
2019-05-10T23:06:26.800Z,20.08
2019-05-10T23:09:04.954Z,20.62
2019-05-10T23:11:39.276Z,19.85
2019-05-10T23:14:10.521Z,20.62
2019-05-10T23:16:42.378Z,20.77
2019-05-10T23:19:16.833Z,19.87
2019-05-10T23:21:45.422Z,21.02
2019-05-10T23:24:21.533Z,21.82
2019-05-10T23:26:55.923Z,21.97
2019-05-10T23:29:24.515Z,21.23
2019-05-10T23:31:56.150Z,21.95
2019-05-10T23:36:57.632Z,21.80
2019-05-10T23:39:40.350Z,21.70
2019-05-10T23:42:01.847Z,22.70
2019-05-10T23:44:36.360Z,23.10
2019-05-10T23:47:11.236Z,23.15
2019-05-10T23:49:45.975Z,22.67
2019-05-10T23:52:17.631Z,22.73
2019-05-10T23:57:25.491Z,23.42
